Time;durP1;ratioP1;P1;durP2;ratioP2;P2;SDS_P1;SDS_P2;PMS_P1;PMS_P2;Temp;Humidity;BMP_temperature;BMP_pressure;BME280_temperature;BME280_humidity;BME280_pressure;Samples;Min_cycle;Max_cycle;Signal;HPM_P1;HPM_P2
2023/09/30 00:02:06;;;;;;;1.85;0.65;;;;;;;16.86;92.99;101425.78;5027963;28;20068;-66
2023/09/30 00:04:32;;;;;;;4.47;1.25;;;;;;;16.88;92.91;101424.22;5025146;28;20568;-67
2023/09/30 00:06:57;;;;;;;6.30;1.10;;;;;;;16.78;92.85;101424.91;5028471;28;20429;-66
2023/09/30 00:09:23;;;;;;;3.72;1.05;;;;;;;16.85;92.89;101421.47;5031276;28;20029;-66
2023/09/30 00:11:48;;;;;;;3.08;1.05;;;;;;;16.81;92.94;101426.91;5029324;28;20037;-67
2023/09/30 00:14:14;;;;;;;2.03;0.70;;;;;;;16.81;92.95;101420.69;5029829;28;20038;-67
2023/09/30 00:16:40;;;;;;;3.67;0.88;;;;;;;16.72;93.48;101429.19;5029354;28;20041;-66
2023/09/30 00:19:06;;;;;;;4.35;1.00;;;;;;;16.70;93.63;101433.41;5030736;28;20037;-66
2023/09/30 00:21:31;;;;;;;5.25;1.23;;;;;;;16.71;93.70;101446.63;5028757;28;20029;-66
2023/09/30 00:23:56;;;;;;;1.58;0.93;;;;;;;16.74;93.21;101436.94;5031040;28;20021;-66
2023/09/30 00:26:22;;;;;;;1.55;0.70;;;;;;;16.66;93.32;101433.41;5027995;28;20521;-67
2023/09/30 00:28:48;;;;;;;2.95;0.73;;;;;;;16.70;93.14;101439.66;5030187;28;20041;-66
2023/09/30 00:31:13;;;;;;;1.88;0.75;;;;;;;16.75;93.31;101444.72;5023887;28;20093;-67
2023/09/30 00:33:39;;;;;;;3.50;0.98;;;;;;;16.74;92.76;101450.56;5028778;28;20091;-68
2023/09/30 00:36:09;;;;;;;2.97;0.75;;;;;;;16.76;93.00;101448.25;5029265;28;20037;-68
2023/09/30 00:38:36;;;;;;;5.73;1.10;;;;;;;16.70;93.10;101447.81;5029137;28;20037;-67
2023/09/30 00:41:01;;;;;;;2.35;0.57;;;;;;;16.62;93.33;101450.84;5027866;28;20489;-67
2023/09/30 00:43:26;;;;;;;4.80;1.10;;;;;;;16.67;93.38;101451.28;5030075;28;20079;-66
2023/09/30 00:46:05;;;;;;;1.00;0.65;;;;;;;16.72;92.77;101450.16;5028275;28;20040;-67
2023/09/30 00:48:34;;;;;;;5.80;1.00;;;;;;;16.63;93.13;101444.22;5034029;28;20148;-67
2023/09/30 00:51:00;;;;;;;4.65;1.02;;;;;;;16.54;93.42;101447.28;5027653;28;20441;-67
2023/09/30 00:53:26;;;;;;;3.78;1.02;;;;;;;16.58;93.31;101450.03;5025572;28;20037;-67
2023/09/30 00:55:54;;;;;;;2.15;0.85;;;;;;;16.62;93.47;101450.84;5032413;28;20117;-67
2023/09/30 00:58:20;;;;;;;1.27;0.50;;;;;;;16.56;93.47;101449.63;5025658;28;20638;-67
2023/09/30 01:00:46;;;;;;;3.55;1.20;;;;;;;16.54;93.42;101460.09;5027247;28;20040;-68
2023/09/30 01:03:12;;;;;;;2.03;1.23;;;;;;;16.52;93.21;101460.47;5025238;28;20398;-65
2023/09/30 01:05:38;;;;;;;3.95;1.10;;;;;;;16.54;93.37;101465.53;5026109;28;20032;-68
2023/09/30 01:08:04;;;;;;;3.30;1.23;;;;;;;16.56;93.19;101452.34;5014240;28;20021;-67
2023/09/30 01:10:29;;;;;;;1.33;0.60;;;;;;;16.56;93.35;101460.50;5033641;28;20038;-67
2023/09/30 01:12:55;;;;;;;3.15;0.80;;;;;;;16.45;93.17;101454.94;5030734;28;20682;-67
2023/09/30 01:15:20;;;;;;;2.05;0.80;;;;;;;16.39;93.88;101455.66;5016948;28;20490;-67
2023/09/30 01:17:46;;;;;;;2.05;0.93;;;;;;;16.26;93.85;101461.34;5031123;28;20037;-67
2023/09/30 01:20:16;;;;;;;3.33;0.70;;;;;;;16.29;93.98;101451.66;5031129;28;20025;-67
2023/09/30 01:22:45;;;;;;;6.03;1.13;;;;;;;16.28;93.92;101450.09;5031729;28;20033;-66
2023/09/30 01:25:11;;;;;;;2.70;0.85;;;;;;;16.31;94.37;101459.44;5032422;28;20036;-67
2023/09/30 01:27:36;;;;;;;2.40;1.08;;;;;;;16.25;94.17;101454.34;5030768;28;20071;-68
2023/09/30 01:30:02;;;;;;;2.13;0.95;;;;;;;16.24;94.00;101460.16;5027558;28;20025;-67
2023/09/30 01:32:28;;;;;;;8.43;0.80;;;;;;;16.19;93.69;101458.56;5026221;28;20057;-67
2023/09/30 01:34:56;;;;;;;3.50;0.90;;;;;;;16.18;94.55;101464.38;5030534;28;20053;-67
2023/09/30 01:37:22;;;;;;;5.15;0.73;;;;;;;16.16;93.67;101464.72;5033258;28;20033;-67
2023/09/30 01:39:50;;;;;;;3.47;0.88;;;;;;;16.08;94.16;101468.53;5024127;28;20524;-68
2023/09/30 01:42:15;;;;;;;2.88;0.80;;;;;;;16.09;94.14;101467.38;5032794;28;20030;-68
2023/09/30 01:44:41;;;;;;;4.53;0.90;;;;;;;16.09;94.36;101469.31;5033340;28;20124;-68
2023/09/30 01:47:06;;;;;;;3.97;1.05;;;;;;;16.07;94.21;101461.53;5032125;28;20040;-68
2023/09/30 01:49:32;;;;;;;4.10;0.88;;;;;;;16.14;94.28;101469.75;5030605;28;20095;-67
2023/09/30 01:51:57;;;;;;;2.92;0.80;;;;;;;16.17;94.08;101471.75;5029611;28;20164;-68
2023/09/30 01:54:24;;;;;;;2.58;0.90;;;;;;;16.19;94.02;101469.44;5030512;28;20485;-68
2023/09/30 01:56:50;;;;;;;2.20;1.00;;;;;;;16.19;93.96;101477.59;5032807;28;20032;-67
2023/09/30 01:59:16;;;;;;;3.60;1.00;;;;;;;16.16;93.89;101483.75;5031027;28;20567;-67
2023/09/30 02:01:41;;;;;;;5.55;1.05;;;;;;;16.14;94.25;101488.78;5028097;28;20493;-67
2023/09/30 02:04:07;;;;;;;3.72;0.73;;;;;;;16.09;94.36;101486.41;5029735;28;20040;-67
2023/09/30 02:06:32;;;;;;;2.25;0.80;;;;;;;16.01;94.56;101486.69;5032252;28;20033;-68
2023/09/30 02:08:58;;;;;;;4.57;1.10;;;;;;;16.01;94.84;101479.31;5032371;28;20029;-67
2023/09/30 02:11:29;;;;;;;3.95;1.17;;;;;;;15.92;95.57;101486.19;5027719;28;20478;-68
2023/09/30 02:13:54;;;;;;;;;;;;;;;15.94;95.18;101481.16;5028597;28;20040;-68
2023/09/30 02:16:20;;;;;;;2.50;0.60;;;;;;;16.01;94.59;101489.41;5013368;28;19913;-68
2023/09/30 02:18:45;;;;;;;9.10;0.80;;;;;;;15.99;94.54;101495.22;5028476;28;20304;-68
2023/09/30 02:21:11;;;;;;;1.65;0.88;;;;;;;16.02;94.51;101497.19;5028318;28;20017;-68
2023/09/30 02:23:36;;;;;;;3.40;0.85;;;;;;;16.02;94.29;101501.84;5024345;28;20560;-68
2023/09/30 02:26:03;;;;;;;5.40;0.77;;;;;;;16.00;94.02;101494.06;5032141;28;20397;-68
2023/09/30 02:28:32;;;;;;;2.17;0.70;;;;;;;15.91;94.42;101496.28;5030459;28;20033;-67
2023/09/30 02:30:58;;;;;;;1.80;0.90;;;;;;;15.92;94.45;101503.28;5034420;28;20441;-67
2023/09/30 02:33:25;;;;;;;2.67;0.90;;;;;;;15.98;94.10;101501.03;5047509;28;20445;-67
2023/09/30 02:35:51;;;;;;;3.30;0.90;;;;;;;15.88;94.15;101496.22;5031589;28;20029;-67
2023/09/30 02:38:18;;;;;;;2.55;0.90;;;;;;;15.83;94.57;101500.03;5011404;28;20037;-67
2023/09/30 02:40:46;;;;;;;3.67;1.25;;;;;;;15.88;94.55;101494.31;5031003;28;20067;-67
2023/09/30 02:43:12;;;;;;;2.88;0.82;;;;;;;15.91;94.08;101492.78;5032277;28;20042;-68
2023/09/30 02:45:38;;;;;;;5.07;1.67;;;;;;;15.87;94.43;101495.44;5031516;28;20029;-68
2023/09/30 02:48:03;;;;;;;3.08;0.90;;;;;;;15.77;94.63;101496.13;5028969;28;20402;-68
2023/09/30 02:50:29;;;;;;;5.60;1.23;;;;;;;15.80;94.50;101498.09;5031436;28;20037;-67
2023/09/30 02:52:55;;;;;;;4.65;0.80;;;;;;;15.78;94.58;101508.53;5031216;28;20084;-67
2023/09/30 02:55:20;;;;;;;3.70;1.17;;;;;;;15.78;94.80;101503.09;5027709;28;20044;-68
2023/09/30 02:57:46;;;;;;;1.80;0.70;;;;;;;15.72;94.64;101503.78;5031567;28;20034;-67
2023/09/30 03:00:33;;;;;;;3.85;1.08;;;;;;;15.71;95.11;101504.94;5028002;28;20033;-68
2023/09/30 03:03:00;;;;;;;1.48;0.82;;;;;;;15.73;94.79;101505.34;5031536;28;20795;-66
2023/09/30 03:05:27;;;;;;;3.20;1.20;;;;;;;15.75;94.36;101503.06;5029079;28;20029;-67
2023/09/30 03:07:54;;;;;;;3.95;1.15;;;;;;;15.76;94.15;101505.41;5027478;28;20037;-67
2023/09/30 03:10:20;;;;;;;3.20;1.20;;;;;;;15.73;94.37;101510.78;5044252;28;20486;-67
2023/09/30 03:12:49;;;;;;;3.47;0.77;;;;;;;15.74;94.16;101496.84;5027277;28;20088;-67
2023/09/30 03:15:15;;;;;;;5.43;0.98;;;;;;;15.68;94.39;101506.44;5031518;28;20025;-68
2023/09/30 03:17:41;;;;;;;6.78;1.42;;;;;;;15.69;94.51;101505.31;5029960;28;20037;-68
2023/09/30 03:20:11;;;;;;;2.28;1.00;;;;;;;15.73;94.12;101517.00;5032476;28;20033;-68
2023/09/30 03:22:48;;;;;;;3.92;1.02;;;;;;;15.73;93.73;101511.59;5011822;28;20556;-68
2023/09/30 03:25:17;;;;;;;4.75;1.10;;;;;;;15.62;94.52;101520.75;5024373;28;20030;-68
2023/09/30 03:27:43;;;;;;;4.93;1.35;;;;;;;15.52;94.82;101519.44;5031261;28;20041;-68
2023/09/30 03:30:11;;;;;;;3.28;1.02;;;;;;;15.50;94.70;101513.59;5028852;28;20060;-68
2023/09/30 03:32:38;;;;;;;3.00;1.38;;;;;;;15.56;94.89;101519.47;5026817;28;20033;-67
2023/09/30 03:35:07;;;;;;;2.58;1.52;;;;;;;15.58;94.81;101512.50;5023267;28;20347;-68
2023/09/30 03:37:36;;;;;;;3.67;0.75;;;;;;;15.55;94.68;101521.41;5031897;28;20405;-68
2023/09/30 03:40:11;;;;;;;2.83;1.42;;;;;;;15.52;94.68;101522.16;5025529;28;20061;-67
2023/09/30 03:42:39;;;;;;;2.10;0.93;;;;;;;15.51;94.84;101512.44;5028293;28;20029;-68
2023/09/30 03:45:07;;;;;;;5.55;1.00;;;;;;;15.43;95.07;101508.03;5027482;28;20030;-67
2023/09/30 03:47:35;;;;;;;2.28;1.27;;;;;;;15.48;94.82;101510.47;5030293;28;20513;-67
2023/09/30 03:50:04;;;;;;;6.65;1.42;;;;;;;15.46;95.22;101510.03;5028559;28;20044;-68
2023/09/30 03:52:32;;;;;;;3.35;1.40;;;;;;;15.43;95.52;101521.63;5030728;28;20522;-67
2023/09/30 03:54:59;;;;;;;3.50;0.95;;;;;;;15.47;95.11;101511.59;5029468;28;20034;-68
2023/09/30 03:57:24;;;;;;;3.22;1.58;;;;;;;15.42;95.11;101511.91;5027359;28;20116;-68
2023/09/30 03:59:50;;;;;;;6.15;1.58;;;;;;;15.39;94.98;101501.75;5025602;28;20116;-68
2023/09/30 04:02:15;;;;;;;3.15;0.93;;;;;;;15.38;95.20;101511.06;5031005;28;20129;-68
2023/09/30 04:04:40;;;;;;;3.08;1.25;;;;;;;15.38;95.78;101522.69;5023440;28;20052;-68
2023/09/30 04:07:07;;;;;;;2.65;0.85;;;;;;;15.37;95.74;101518.41;5027699;28;20037;-67
2023/09/30 04:09:32;;;;;;;4.90;1.63;;;;;;;15.42;95.57;101511.91;5026280;28;20030;-67
2023/09/30 04:11:58;;;;;;;6.78;1.58;;;;;;;15.53;95.31;101517.50;5026986;28;20732;-67
2023/09/30 04:14:25;;;;;;;5.50;1.63;;;;;;;15.55;94.71;101510.56;5027662;28;20494;-67
2023/09/30 04:16:50;;;;;;;3.70;1.50;;;;;;;15.49;94.99;101513.94;5030632;28;20374;-67
2023/09/30 04:19:16;;;;;;;6.00;1.38;;;;;;;15.45;95.04;101516.59;5022903;28;20099;-67
2023/09/30 04:21:42;;;;;;;2.67;0.88;;;;;;;15.41;94.90;101523.88;5029192;28;20056;-67
2023/09/30 04:24:09;;;;;;;7.95;1.63;;;;;;;15.37;95.26;101526.56;5029663;28;20068;-68
2023/09/30 04:26:34;;;;;;;7.05;1.67;;;;;;;15.44;95.09;101525.91;5026965;28;20037;-68
2023/09/30 04:29:06;;;;;;;6.22;1.58;;;;;;;15.32;95.72;101523.38;5028421;28;20032;-68
2023/09/30 04:31:31;;;;;;;8.07;1.63;;;;;;;15.37;95.85;101533.91;5029907;28;20125;-67
2023/09/30 04:33:59;;;;;;;2.60;1.35;;;;;;;15.31;95.45;101528.00;5028966;28;20100;-67
2023/09/30 04:36:25;;;;;;;3.70;1.13;;;;;;;15.38;95.72;101532.78;5029875;28;20030;-68
2023/09/30 04:38:53;;;;;;;7.25;1.63;;;;;;;15.40;95.77;101530.47;5024129;28;20029;-67
2023/09/30 04:41:21;;;;;;;5.75;1.35;;;;;;;15.37;95.84;101537.41;5026024;28;20099;-67
2023/09/30 04:43:47;;;;;;;3.15;1.35;;;;;;;15.31;96.30;101541.56;5028603;28;20037;-67
2023/09/30 04:46:13;;;;;;;6.57;1.48;;;;;;;15.41;95.79;101536.69;5027509;28;20394;-67
2023/09/30 04:48:39;;;;;;;2.53;1.17;;;;;;;15.33;96.25;101539.28;5031256;28;20044;-68
2023/09/30 04:51:08;;;;;;;2.58;1.40;;;;;;;15.32;96.60;101545.88;5026172;28;20021;-68
2023/09/30 04:53:34;;;;;;;2.97;1.55;;;;;;;15.36;96.58;101552.13;5027910;28;20037;-68
2023/09/30 04:55:59;;;;;;;2.22;0.98;;;;;;;15.39;96.26;101550.59;5029878;28;20413;-67
2023/09/30 04:58:25;;;;;;;4.43;1.08;;;;;;;15.34;96.64;101561.78;5027624;28;20029;-68
2023/09/30 05:00:50;;;;;;;3.80;1.10;;;;;;;15.35;96.63;101556.00;5028379;28;20417;-68
2023/09/30 05:03:16;;;;;;;5.85;1.33;;;;;;;15.34;96.83;101559.88;5028151;28;20025;-68
2023/09/30 05:05:42;;;;;;;1.88;0.80;;;;;;;15.36;96.69;101554.84;5028343;28;20429;-68
2023/09/30 05:08:07;;;;;;;4.78;1.25;;;;;;;15.32;97.06;101542.38;5027150;28;20425;-68
2023/09/30 05:10:33;;;;;;;3.90;1.42;;;;;;;15.25;97.29;101542.28;5025548;28;20053;-67
2023/09/30 05:12:59;;;;;;;2.85;1.30;;;;;;;15.27;97.24;101538.03;5030490;28;20030;-67
2023/09/30 05:15:29;;;;;;;3.47;1.58;;;;;;;15.28;97.45;101546.94;5028071;28;20033;-67
2023/09/30 05:17:55;;;;;;;2.10;1.10;;;;;;;15.34;96.94;101559.06;5035310;28;20415;-68
2023/09/30 05:20:20;;;;;;;2.80;1.30;;;;;;;15.36;96.80;101559.50;5028421;28;20060;-67
2023/09/30 05:22:46;;;;;;;2.53;1.25;;;;;;;15.36;96.62;101559.50;5026805;28;20069;-68
2023/09/30 05:25:15;;;;;;;4.70;1.50;;;;;;;15.35;96.80;101556.00;5029095;28;20029;-68
2023/09/30 05:27:41;;;;;;;6.15;1.30;;;;;;;15.33;96.57;101562.91;5027330;28;20131;-68
2023/09/30 05:30:09;;;;;;;2.45;0.95;;;;;;;15.23;97.29;101550.00;5023122;28;20112;-68
2023/09/30 05:32:38;;;;;;;5.80;1.45;;;;;;;15.16;97.51;101555.28;5023154;28;20025;-67
2023/09/30 05:35:04;;;;;;;3.08;1.30;;;;;;;15.20;97.90;101564.28;5029360;28;20034;-67
2023/09/30 05:37:30;;;;;;;1.60;1.02;;;;;;;15.27;97.32;101565.16;5026575;28;20409;-68
2023/09/30 05:39:56;;;;;;;3.88;1.10;;;;;;;15.23;97.66;101558.13;5027958;28;20044;-67
2023/09/30 05:42:22;;;;;;;2.78;1.13;;;;;;;15.21;97.63;101557.72;5024765;28;20036;-67
2023/09/30 05:44:48;;;;;;;4.40;1.20;;;;;;;15.18;97.44;101570.06;5027966;28;20049;-68
2023/09/30 05:47:15;;;;;;;2.67;1.20;;;;;;;15.20;98.13;101578.63;5028896;28;20044;-67
2023/09/30 05:49:41;;;;;;;2.92;1.27;;;;;;;15.19;97.87;101584.44;5028396;28;20385;-69
2023/09/30 05:52:07;;;;;;;7.28;0.90;;;;;;;15.25;97.84;101583.75;5029438;28;20098;-67
2023/09/30 05:54:32;;;;;;;4.55;1.35;;;;;;;15.22;97.45;101586.41;5027152;28;20486;-67
2023/09/30 05:56:57;;;;;;;3.13;1.10;;;;;;;15.20;97.91;101589.47;5034060;28;20121;-67
2023/09/30 05:59:24;;;;;;;5.70;1.60;;;;;;;15.22;98.22;101583.69;5028786;28;20116;-67
2023/09/30 06:01:50;;;;;;;11.68;1.75;;;;;;;15.28;98.05;101588.47;5030327;28;20017;-67
2023/09/30 06:04:16;;;;;;;4.35;1.13;;;;;;;15.36;98.17;101590.16;5028566;28;20040;-66
2023/09/30 06:06:43;;;;;;;5.90;1.45;;;;;;;15.39;97.77;101599.47;5032364;28;20025;-67
2023/09/30 06:09:09;;;;;;;7.63;1.15;;;;;;;15.47;97.33;101603.91;5030517;28;20486;-67
2023/09/30 06:11:35;;;;;;;3.47;1.17;;;;;;;15.51;97.36;101602.03;5028127;28;20021;-66
2023/09/30 06:14:02;;;;;;;3.65;1.40;;;;;;;15.48;97.67;101610.13;5025929;28;20113;-67
2023/09/30 06:16:28;;;;;;;1.98;1.13;;;;;;;15.52;97.85;101608.25;5031821;28;20029;-67
2023/09/30 06:18:54;;;;;;;3.50;1.25;;;;;;;15.55;97.19;101616.44;5029835;28;20064;-66
2023/09/30 06:21:24;;;;;;;4.47;1.00;;;;;;;15.54;97.67;101622.25;5032128;28;20021;-67
2023/09/30 06:23:53;;;;;;;3.17;1.75;;;;;;;15.58;97.67;101617.66;5030466;28;20621;-67
2023/09/30 06:26:20;;;;;;;3.42;1.48;;;;;;;15.54;97.93;101623.03;5030683;28;20037;-67
2023/09/30 06:28:47;;;;;;;1.27;0.90;;;;;;;15.61;97.54;101625.06;5027040;28;20057;-67
2023/09/30 06:31:13;;;;;;;2.30;0.85;;;;;;;15.57;98.09;101621.50;5029446;28;20037;-66
2023/09/30 06:33:39;;;;;;;4.45;1.40;;;;;;;15.63;97.39;101623.56;5029519;28;20591;-67
2023/09/30 06:36:16;;;;;;;7.35;1.50;;;;;;;15.66;97.12;101619.34;5030037;28;20425;-67
2023/09/30 06:38:42;;;;;;;6.10;1.35;;;;;;;15.68;97.34;101633.34;5030366;28;20045;-66
2023/09/30 06:41:08;;;;;;;4.68;1.80;;;;;;;15.64;97.48;101635.97;5029758;28;20021;-67
2023/09/30 06:43:35;;;;;;;2.92;1.50;;;;;;;15.72;97.65;101645.81;5027235;28;20045;-67
2023/09/30 06:46:09;;;;;;;4.88;1.17;;;;;;;15.70;97.36;101647.34;5033357;28;20432;-67
2023/09/30 06:48:35;;;;;;;3.72;1.55;;;;;;;15.75;97.19;101644.31;5029146;28;20505;-67
2023/09/30 06:51:03;;;;;;;6.80;1.10;;;;;;;15.77;97.05;101648.22;5032717;28;20457;-67
2023/09/30 06:53:29;;;;;;;8.18;1.52;;;;;;;15.81;96.96;101656.44;5013953;28;20029;-65
2023/09/30 06:55:55;;;;;;;5.65;1.10;;;;;;;15.87;97.15;101661.16;5032752;28;20028;-67
2023/09/30 06:58:20;;;;;;;4.38;1.35;;;;;;;15.88;97.28;101659.25;5025984;28;20021;-67
2023/09/30 07:00:50;;;;;;;3.85;1.10;;;;;;;15.92;97.51;101655.44;5010654;28;20429;-67
2023/09/30 07:03:19;;;;;;;2.38;1.13;;;;;;;15.90;97.96;101670.53;5032480;28;20116;-66
2023/09/30 07:05:45;;;;;;;4.00;1.10;;;;;;;16.00;97.77;101665.25;5028894;28;20041;-67
2023/09/30 07:08:10;;;;;;;1.73;1.08;;;;;;;15.93;98.34;101669.81;5030527;28;20040;-67
2023/09/30 07:10:36;;;;;;;4.75;1.48;;;;;;;16.01;98.42;101674.19;5029882;28;20051;-66
2023/09/30 07:13:03;;;;;;;9.48;1.50;;;;;;;16.08;98.41;101668.88;5023406;28;20034;-66
2023/09/30 07:15:29;;;;;;;2.25;1.42;;;;;;;16.12;97.57;101664.25;5029138;28;20052;-66
2023/09/30 07:17:54;;;;;;;5.18;1.60;;;;;;;16.25;98.06;101680.00;5029900;28;20038;-66
2023/09/30 07:20:20;;;;;;;2.67;1.50;;;;;;;16.38;98.13;101683.25;5032823;28;20108;-67
2023/09/30 07:22:46;;;;;;;5.22;1.58;;;;;;;16.49;98.04;101680.72;5012670;28;20397;-67
2023/09/30 07:25:14;;;;;;;4.63;1.40;;;;;;;16.71;98.20;101675.16;5031357;28;20501;-67
2023/09/30 07:27:40;;;;;;;4.45;1.40;;;;;;;16.88;96.97;101674.56;5030405;28;20048;-65
2023/09/30 07:30:06;;;;;;;6.38;1.02;;;;;;;17.06;97.09;101685.66;5027168;28;20041;-67
2023/09/30 07:32:32;;;;;;;3.05;1.48;;;;;;;17.33;96.41;101695.28;5024948;28;20405;-66
2023/09/30 07:34:57;;;;;;;4.07;1.35;;;;;;;17.38;95.74;101697.63;5027232;28;20033;-66
2023/09/30 07:37:23;;;;;;;3.15;1.27;;;;;;;17.63;95.61;101700.63;5029089;28;20033;-67
2023/09/30 07:39:49;;;;;;;2.42;1.45;;;;;;;17.84;94.58;101687.19;5032168;28;20033;-67
2023/09/30 07:42:14;;;;;;;3.47;1.40;;;;;;;18.02;93.08;101697.03;5028183;28;20482;-67
2023/09/30 07:44:40;;;;;;;3.90;1.25;;;;;;;18.11;90.98;101698.66;5029795;28;20037;-66
2023/09/30 07:47:09;;;;;;;3.88;1.10;;;;;;;18.11;91.59;101699.44;5030009;28;20029;-67
2023/09/30 07:49:34;;;;;;;3.92;1.13;;;;;;;18.27;91.47;101699.94;5028118;28;20083;-67
2023/09/30 07:52:00;;;;;;;7.28;1.42;;;;;;;18.25;91.23;101696.03;5027440;28;20127;-67
2023/09/30 07:54:26;;;;;;;5.22;1.02;;;;;;;18.39;90.52;101707.03;5031745;28;20053;-67
2023/09/30 07:56:51;;;;;;;7.53;1.20;;;;;;;18.61;89.60;101695.06;5023476;28;20044;-67
2023/09/30 07:59:17;;;;;;;3.60;0.90;;;;;;;18.68;88.95;101700.53;5029400;28;20601;-67
2023/09/30 08:01:43;;;;;;;2.60;0.90;;;;;;;18.71;88.45;101710.69;5027920;28;20502;-67
2023/09/30 08:04:08;;;;;;;3.20;1.27;;;;;;;18.69;88.34;101713.81;5026348;28;20034;-66
2023/09/30 08:06:34;;;;;;;5.13;1.15;;;;;;;18.99;88.02;101710.78;5028247;28;20064;-66
2023/09/30 08:08:59;;;;;;;5.05;1.15;;;;;;;19.04;87.54;101713.16;5029341;28;20035;-66
2023/09/30 08:11:30;;;;;;;4.03;0.95;;;;;;;19.13;87.26;101716.31;5030420;28;20033;-66
2023/09/30 08:13:56;;;;;;;4.95;1.02;;;;;;;19.20;86.60;101710.84;5030313;28;20029;-67
2023/09/30 08:16:21;;;;;;;2.67;1.10;;;;;;;19.29;86.39;101716.72;5023553;28;20104;-67
2023/09/30 08:18:47;;;;;;;5.32;1.25;;;;;;;19.44;85.81;101723.81;5022574;28;20091;-66
2023/09/30 08:21:12;;;;;;;1.98;0.90;;;;;;;19.49;85.20;101719.91;5029882;28;20548;-67
2023/09/30 08:23:41;;;;;;;3.92;0.77;;;;;;;19.64;84.78;101719.53;5029638;28;20033;-67
2023/09/30 08:26:06;;;;;;;1.73;1.05;;;;;;;19.77;84.04;101715.25;5009412;28;20090;-65
2023/09/30 08:28:32;;;;;;;2.70;0.68;;;;;;;19.91;83.29;101736.34;5028589;28;20025;-66
2023/09/30 08:31:05;;;;;;;2.72;0.60;;;;;;;19.96;83.52;101755.06;5027893;28;20429;-67
2023/09/30 08:33:31;;;;;;;4.40;0.95;;;;;;;20.11;82.53;101755.88;5031294;28;20024;-66
2023/09/30 08:36:06;;;;;;;5.13;0.68;;;;;;;20.24;81.96;101751.56;5030263;28;20045;-67
2023/09/30 08:38:32;;;;;;;2.40;0.80;;;;;;;20.34;81.88;101759.75;5026439;28;20171;-67
2023/09/30 08:40:59;;;;;;;5.45;1.08;;;;;;;20.41;80.87;101742.53;5025805;28;20116;-67
2023/09/30 08:43:27;;;;;;;1.83;1.00;;;;;;;20.39;81.29;101736.69;5031150;28;20075;-66
2023/09/30 08:45:54;;;;;;;3.17;1.10;;;;;;;20.44;81.25;101752.72;5025381;28;20037;-67
2023/09/30 08:48:22;;;;;;;1.88;0.95;;;;;;;20.48;81.19;101742.50;5027949;28;20041;-67
2023/09/30 08:50:49;;;;;;;6.30;1.13;;;;;;;20.56;80.74;101742.09;5027846;28;20029;-66
2023/09/30 08:53:16;;;;;;;3.22;0.98;;;;;;;20.74;80.40;101742.06;5028045;28;20485;-66
2023/09/30 08:55:43;;;;;;;4.50;0.75;;;;;;;20.87;79.54;101745.91;5023954;28;20045;-66
2023/09/30 08:58:11;;;;;;;4.95;0.80;;;;;;;20.91;79.93;101749.41;5026854;28;20029;-68
2023/09/30 09:00:38;;;;;;;2.85;0.55;;;;;;;21.14;78.06;101754.41;5029197;28;20060;-67
2023/09/30 09:03:04;;;;;;;1.48;0.50;;;;;;;21.24;77.10;101761.81;5029051;28;20038;-68
2023/09/30 09:05:30;;;;;;;2.85;0.85;;;;;;;21.20;76.55;101767.31;5029087;28;20052;-67
2023/09/30 09:07:55;;;;;;;3.53;0.70;;;;;;;21.21;75.90;101766.16;5027884;28;20481;-67
2023/09/30 09:10:20;;;;;;;4.63;0.70;;;;;;;21.24;75.85;101762.59;5029137;28;20061;-67
2023/09/30 09:12:56;;;;;;;2.17;0.57;;;;;;;21.24;75.45;101768.06;5023935;28;20026;-67
2023/09/30 09:15:28;;;;;;;5.45;0.70;;;;;;;21.31;75.38;101762.53;5029626;28;20038;-67
2023/09/30 09:17:54;;;;;;;2.65;0.70;;;;;;;21.44;74.94;101769.13;5029834;28;20466;-67
2023/09/30 09:20:22;;;;;;;4.50;0.80;;;;;;;21.73;75.07;101775.22;5029821;28;20100;-66
2023/09/30 09:22:54;;;;;;;2.67;0.50;;;;;;;22.10;73.05;101775.34;5026937;28;20044;-67
2023/09/30 09:25:22;;;;;;;1.20;0.43;;;;;;;22.29;71.51;101776.72;5027441;28;20060;-66
2023/09/30 09:27:50;;;;;;;4.85;0.50;;;;;;;22.37;70.29;101786.44;5027983;28;20128;-67
2023/09/30 09:30:20;;;;;;;1.90;0.65;;;;;;;22.28;69.91;101773.19;5029559;28;20128;-67
2023/09/30 09:32:53;;;;;;;1.83;0.63;;;;;;;22.23;70.28;101781.09;5035698;28;20099;-67
2023/09/30 09:35:20;;;;;;;2.58;0.50;;;;;;;21.99;72.51;101773.88;5030853;28;20033;-66
2023/09/30 09:38:06;;;;;;;1.65;0.50;;;;;;;21.99;72.12;101769.13;5033837;28;20795;-66
2023/09/30 09:40:33;;;;;;;4.40;1.35;;;;;;;21.98;71.30;101767.59;5029989;28;20026;-66
2023/09/30 09:43:02;;;;;;;1.02;0.43;;;;;;;21.95;71.69;101782.09;5032298;28;20022;-66
2023/09/30 09:45:28;;;;;;;1.52;0.50;;;;;;;21.94;71.82;101779.78;5032053;28;20547;-66
2023/09/30 09:47:54;;;;;;;1.65;0.57;;;;;;;21.82;72.31;101775.56;5030950;28;20108;-66
2023/09/30 09:50:22;;;;;;;3.10;0.70;;;;;;;21.87;71.70;101777.09;5031436;28;20025;-65
2023/09/30 09:52:50;;;;;;;6.43;1.08;;;;;;;21.93;70.23;101776.25;5030312;28;20064;-66
2023/09/30 09:55:18;;;;;;;1.75;0.45;;;;;;;21.62;71.65;101781.94;5030150;28;20040;-66
2023/09/30 09:57:45;;;;;;;0.95;0.40;;;;;;;21.76;70.63;101776.34;5031021;28;20193;-65
2023/09/30 10:00:20;;;;;;;7.72;0.68;;;;;;;21.83;70.87;101779.88;5028455;28;20105;-67
2023/09/30 10:02:47;;;;;;;1.70;0.43;;;;;;;21.87;71.12;101766.13;5030549;28;20037;-66
2023/09/30 10:05:13;;;;;;;1.95;0.50;;;;;;;21.79;70.36;101764.59;5030594;28;20026;-66
2023/09/30 10:07:52;;;;;;;4.25;0.40;;;;;;;21.66;72.04;101763.50;5030959;28;20057;-66
2023/09/30 10:10:20;;;;;;;2.22;0.55;;;;;;;21.54;73.19;101764.78;5031667;28;20033;-67
2023/09/30 10:12:46;;;;;;;6.45;0.77;;;;;;;21.57;72.18;101769.44;5032103;28;20421;-66
2023/09/30 10:15:24;;;;;;;4.07;0.77;;;;;;;21.63;71.33;101773.31;5022035;28;20032;-66
2023/09/30 10:18:19;;;;;;;2.95;0.73;;;;;;;21.61;71.06;101755.69;5025322;28;20045;-66
2023/09/30 10:20:46;;;;;;;3.28;0.45;;;;;;;21.61;71.62;101775.69;5022759;28;20538;-66
2023/09/30 10:23:18;;;;;;;1.70;0.50;;;;;;;21.60;71.34;101760.41;5028597;28;20544;-66
2023/09/30 10:25:47;;;;;;;1.35;0.60;;;;;;;21.73;70.32;101777.94;5029317;28;20041;-66
2023/09/30 10:28:32;;;;;;;3.45;0.70;;;;;;;21.84;69.84;101780.63;5027016;28;20026;-66
2023/09/30 10:31:27;;;;;;;1.50;0.20;;;;;;;21.86;68.99;101778.25;5029151;28;20065;-67
2023/09/30 10:34:04;;;;;;;1.83;0.55;;;;;;;21.86;68.12;101778.25;5019732;28;20045;-67
2023/09/30 10:36:32;;;;;;;2.85;0.63;;;;;;;21.87;68.41;101780.63;5026941;28;20129;-67
2023/09/30 10:38:57;;;;;;;3.05;0.30;;;;;;;21.88;69.19;101784.91;5030654;28;20665;-66
2023/09/30 10:41:41;;;;;;;1.30;0.50;;;;;;;21.86;68.36;101789.25;5034786;28;20025;-67
2023/09/30 10:44:22;;;;;;;0.20;0.20;;;;;;;21.73;68.00;101788.13;5031249;28;20116;-67
2023/09/30 10:46:49;;;;;;;1.95;0.43;;;;;;;21.75;67.26;101796.75;5031492;28;20049;-67
2023/09/30 10:49:38;;;;;;;1.67;0.40;;;;;;;21.65;67.78;101803.06;5029388;28;20123;-67
2023/09/30 10:52:06;;;;;;;1.67;0.40;;;;;;;21.60;68.16;101795.28;5031767;28;20605;-67
2023/09/30 10:54:33;;;;;;;5.05;0.65;;;;;;;21.57;68.81;101796.84;5027309;28;20030;-67
2023/09/30 10:56:59;;;;;;;2.55;0.40;;;;;;;21.45;69.05;101798.09;5025959;28;20041;-66
2023/09/30 10:59:27;;;;;;;2.70;0.60;;;;;;;21.51;69.19;101798.47;5028384;28;20033;-67
2023/09/30 11:01:55;;;;;;;1.48;0.50;;;;;;;21.72;68.48;101790.09;5029075;28;20451;-67
2023/09/30 11:04:21;;;;;;;3.10;0.70;;;;;;;21.70;67.98;101780.72;5029560;28;20067;-67
2023/09/30 11:06:46;;;;;;;2.10;0.55;;;;;;;21.88;67.74;101789.63;5027786;28;20041;-67
2023/09/30 11:09:17;;;;;;;1.15;0.40;;;;;;;21.99;67.42;101782.84;5024680;28;20025;-66
2023/09/30 11:11:43;;;;;;;6.13;0.63;;;;;;;22.22;66.72;101788.53;5028106;28;20889;-67
2023/09/30 11:14:27;;;;;;;0.90;0.35;;;;;;;22.21;66.00;101791.69;5024682;28;20041;-66
2023/09/30 11:16:54;;;;;;;5.47;0.90;;;;;;;22.29;65.19;101785.75;5027645;28;20072;-67
2023/09/30 11:19:21;;;;;;;3.47;0.75;;;;;;;22.28;65.07;101797.09;5024202;28;20017;-66
2023/09/30 11:21:49;;;;;;;1.95;0.70;;;;;;;22.20;63.92;101784.66;5007810;28;20052;-67
2023/09/30 11:24:15;;;;;;;2.42;0.38;;;;;;;22.28;65.49;101792.41;5029104;28;20044;-67
2023/09/30 11:26:43;;;;;;;4.80;0.60;;;;;;;22.29;64.16;101787.69;5025585;28;20405;-67